Maida Hill, United Kingdom
Current Conditions -  °F | °C
As of 12:20 PM on Friday 24 Oct 2014 (Local Time) from EGLC Reporting Station
Broken Clouds Broken Clouds  
Wind Chill: 17°   Ceiling: 2000
Heat Index: 17°   Visibility: 6mi
Dew Point: 13°   Wind: 10mph
Humidity: 77%   Direction: 210°SSW
Pressure: 29.97"   Gusts: NA
Location:  51.52°N, 0.18°W
Report Text: EGLC 241120Z 21009KT 9999 SCT014 BKN020 17/13 Q1015
Loading
Personal Weather Stations






























Interactive Weather Map
Tropical Storm Tracking
New forecast layout! Learn more

10-Day Weather Forecast

Advertisements
Track Severe Weather on mobile